createdAt,value
2019-03-26T00:04:06.147Z,7.80
2019-03-26T00:06:55.593Z,7.80
2019-03-26T00:09:46.225Z,7.80
2019-03-26T00:12:40.278Z,7.80
2019-03-26T00:15:31.301Z,7.80
2019-03-26T00:18:38.393Z,7.90
2019-03-26T00:23:52.892Z,7.90
2019-03-26T00:26:56.464Z,7.80
2019-03-26T00:29:41.141Z,7.80
2019-03-26T00:32:32.298Z,7.80
2019-03-26T00:35:45.967Z,7.80
2019-03-26T00:38:22.829Z,7.70
2019-03-26T00:41:04.491Z,7.70
2019-03-26T00:44:01.207Z,7.70
2019-03-26T00:47:29.941Z,7.60
2019-03-26T00:53:26.072Z,7.60
2019-03-26T00:56:12.396Z,7.60
2019-03-26T00:58:50.130Z,7.60
2019-03-26T01:01:27.282Z,7.60
2019-03-26T01:04:11.230Z,7.50
2019-03-26T01:07:01.377Z,7.50
2019-03-26T01:09:42.546Z,7.60
2019-03-26T01:12:40.363Z,7.60
2019-03-26T01:15:24.563Z,7.60
2019-03-26T01:18:19.810Z,7.60
2019-03-26T01:21:06.820Z,7.60
2019-03-26T01:23:55.924Z,7.60
2019-03-26T01:26:44.776Z,7.70
2019-03-26T01:29:31.466Z,7.70
2019-03-26T01:32:04.370Z,7.70
2019-03-26T01:35:06.958Z,7.60
2019-03-26T01:37:43.972Z,7.60
2019-03-26T01:40:39.503Z,7.60
2019-03-26T01:43:15.379Z,7.60
2019-03-26T01:46:08.418Z,7.50
2019-03-26T01:48:56.991Z,7.50
2019-03-26T01:52:10.922Z,7.50
2019-03-26T01:55:00.450Z,7.50
2019-03-26T01:57:48.708Z,7.50
2019-03-26T02:00:26.434Z,7.50
2019-03-26T02:03:14.887Z,7.50
2019-03-26T02:05:48.254Z,7.50
2019-03-26T02:08:27.369Z,7.60
2019-03-26T02:11:03.833Z,7.50
2019-03-26T02:13:35.294Z,7.50
2019-03-26T02:16:18.256Z,7.60
2019-03-26T02:19:10.093Z,7.60
2019-03-26T02:21:51.347Z,7.60
2019-03-26T02:24:43.224Z,7.60
2019-03-26T02:27:11.096Z,7.50
2019-03-26T02:29:53.930Z,7.50
2019-03-26T02:32:35.528Z,7.50
2019-03-26T02:35:22.946Z,7.50
2019-03-26T02:38:03.661Z,7.50
2019-03-26T02:40:46.884Z,7.50
2019-03-26T02:43:26.764Z,7.60
2019-03-26T02:49:08.440Z,7.50
2019-03-26T02:51:49.733Z,7.50
2019-03-26T02:54:32.341Z,7.50
2019-03-26T02:57:08.209Z,7.50
2019-03-26T02:59:48.657Z,7.50
2019-03-26T03:02:33.624Z,7.40
2019-03-26T03:05:07.463Z,7.40
2019-03-26T03:07:52.811Z,7.40
2019-03-26T03:10:36.522Z,7.50
2019-03-26T03:13:25.837Z,7.40
2019-03-26T03:16:03.509Z,7.50
2019-03-26T03:18:35.999Z,7.50
2019-03-26T03:21:16.740Z,7.40
2019-03-26T03:23:51.299Z,7.40
2019-03-26T03:27:02.390Z,7.40
2019-03-26T03:29:27.190Z,7.40
2019-03-26T03:32:03.327Z,7.40
2019-03-26T03:34:36.805Z,7.40
2019-03-26T03:37:19.252Z,7.40
2019-03-26T03:39:55.095Z,7.50
2019-03-26T03:42:41.067Z,7.50
2019-03-26T03:45:14.193Z,7.50
2019-03-26T03:48:07.332Z,7.50
2019-03-26T03:50:49.701Z,7.50
2019-03-26T03:53:29.303Z,7.50
2019-03-26T03:56:19.988Z,7.40
2019-03-26T03:59:05.562Z,7.40
2019-03-26T04:01:41.912Z,7.40
2019-03-26T04:04:17.945Z,7.40
2019-03-26T04:06:57.091Z,7.40
2019-03-26T04:09:33.085Z,7.40
2019-03-26T04:12:13.605Z,7.40
2019-03-26T04:17:45.252Z,7.40
2019-03-26T04:20:21.725Z,7.30
2019-03-26T04:22:57.215Z,7.30
2019-03-26T04:25:37.223Z,7.40
2019-03-26T04:28:20.972Z,7.40
2019-03-26T04:30:59.181Z,7.30
2019-03-26T04:33:41.189Z,7.40
2019-03-26T04:36:26.048Z,7.30
2019-03-26T04:39:10.663Z,7.30
2019-03-26T04:41:56.000Z,7.30
2019-03-26T04:44:31.859Z,7.40
2019-03-26T04:47:10.044Z,7.30
2019-03-26T04:49:44.511Z,7.30
2019-03-26T04:52:23.115Z,7.30
2019-03-26T04:55:02.833Z,7.40
2019-03-26T04:57:45.599Z,7.40
2019-03-26T05:00:30.433Z,7.40
2019-03-26T05:03:08.008Z,7.40
2019-03-26T05:05:48.717Z,7.40
2019-03-26T05:08:33.121Z,7.40
2019-03-26T05:11:07.808Z,7.40
2019-03-26T05:13:47.005Z,7.40
2019-03-26T05:16:19.455Z,7.40
2019-03-26T05:18:56.713Z,7.40
2019-03-26T05:21:38.834Z,7.50
2019-03-26T05:31:59.843Z,7.50
2019-03-26T05:35:51.770Z,7.40
2019-03-26T05:38:58.523Z,7.40
2019-03-26T05:44:53.583Z,7.40
2019-03-26T05:47:55.835Z,7.50
2019-03-26T05:50:42.499Z,7.50
2019-03-26T05:53:14.344Z,7.50
2019-03-26T05:55:46.250Z,7.40
2019-03-26T05:58:28.264Z,7.40
2019-03-26T06:04:25.494Z,7.50
2019-03-26T06:07:17.844Z,7.50
2019-03-26T06:10:27.809Z,7.60
2019-03-26T06:16:39.344Z,7.70
2019-03-26T06:17:33.070Z,7.60
2019-03-26T06:19:30.770Z,7.70
2019-03-26T06:23:09.940Z,7.80
2019-03-26T06:26:24.918Z,7.80
2019-03-26T06:35:32.966Z,7.70
2019-03-26T06:41:22.752Z,7.70
2019-03-26T06:50:19.131Z,7.70
2019-03-26T06:52:54.663Z,7.80
2019-03-26T06:56:04.910Z,7.80
2019-03-26T06:59:10.309Z,7.80
2019-03-26T07:05:46.768Z,7.80
2019-03-26T07:08:41.994Z,7.90
2019-03-26T07:14:37.137Z,8.00
2019-03-26T07:17:36.158Z,8.10
2019-03-26T07:20:41.879Z,8.10
2019-03-26T07:26:31.619Z,8.00
2019-03-26T07:29:33.044Z,8.20
2019-03-26T07:33:11.474Z,8.60
2019-03-26T07:36:38.007Z,8.20
2019-03-26T07:39:48.360Z,8.10
2019-03-26T07:42:42.323Z,7.90
2019-03-26T07:45:35.689Z,7.60
2019-03-26T07:48:52.197Z,7.60
2019-03-26T07:51:51.390Z,7.70
2019-03-26T07:58:13.812Z,7.90
2019-03-26T08:01:08.454Z,8.40
2019-03-26T08:04:00.559Z,8.40
2019-03-26T08:07:12.289Z,8.60
2019-03-26T08:10:28.827Z,8.80
2019-03-26T08:16:32.843Z,10.00
2019-03-26T08:20:01.965Z,11.70
2019-03-26T08:23:15.679Z,12.50
2019-03-26T08:26:21.679Z,12.50
2019-03-26T08:29:09.892Z,11.90
2019-03-26T08:32:01.568Z,11.70
2019-03-26T08:35:04.572Z,11.20
2019-03-26T08:38:29.292Z,11.30
2019-03-26T08:41:30.843Z,13.00
2019-03-26T08:44:21.499Z,14.00
2019-03-26T08:47:17.526Z,14.40
2019-03-26T08:50:08.041Z,14.60
2019-03-26T08:53:20.845Z,13.90
2019-03-26T08:57:11.596Z,13.10
2019-03-26T09:00:18.434Z,12.30
2019-03-26T09:03:40.675Z,11.70
2019-03-26T09:13:06.766Z,11.10
2019-03-26T09:16:33.433Z,10.80
2019-03-26T09:20:20.336Z,10.40
2019-03-26T09:26:56.736Z,9.90
2019-03-26T09:30:16.718Z,9.60
2019-03-26T09:37:12.040Z,9.20
2019-03-26T09:40:42.090Z,9.20
2019-03-26T09:44:05.921Z,9.00
2019-03-26T09:47:18.129Z,8.70
2019-03-26T09:50:34.869Z,8.70
2019-03-26T09:53:43.325Z,8.90
2019-03-26T09:57:01.732Z,9.20
2019-03-26T10:00:02.830Z,9.50
2019-03-26T10:03:34.531Z,10.00
2019-03-26T10:10:56.482Z,10.60
2019-03-26T10:14:18.577Z,10.90
2019-03-26T10:18:11.074Z,11.30
2019-03-26T10:22:08.165Z,11.50
2019-03-26T10:25:10.629Z,12.20
2019-03-26T10:28:29.546Z,12.50
2019-03-26T10:31:21.155Z,12.60
2019-03-26T10:34:17.264Z,12.80
2019-03-26T10:40:49.270Z,12.90
2019-03-26T10:41:05.783Z,13.30
2019-03-26T10:48:24.165Z,13.40
2019-03-26T10:51:15.631Z,13.00
2019-03-26T10:54:50.031Z,12.70
2019-03-26T10:58:15.994Z,12.40
2019-03-26T11:01:35.267Z,12.80
2019-03-26T11:05:17.527Z,12.90
2019-03-26T11:12:21.599Z,12.40
2019-03-26T11:15:30.255Z,12.20
2019-03-26T11:19:01.573Z,11.90
2019-03-26T11:22:20.128Z,11.90
2019-03-26T11:25:28.395Z,11.70
2019-03-26T11:28:37.606Z,11.60
2019-03-26T11:31:39.809Z,11.40
2019-03-26T11:34:55.498Z,11.30
2019-03-26T11:38:07.194Z,11.20
2019-03-26T11:41:01.512Z,11.10
2019-03-26T11:44:26.592Z,10.90
2019-03-26T11:51:27.316Z,11.00
2019-03-26T11:55:26.887Z,11.10
2019-03-26T11:58:02.190Z,11.10
2019-03-26T12:08:33.364Z,10.60
2019-03-26T12:11:50.548Z,10.50
2019-03-26T12:15:08.127Z,10.50
2019-03-26T12:18:08.690Z,10.50
2019-03-26T12:21:29.830Z,10.60
2019-03-26T12:24:34.463Z,10.50
2019-03-26T12:27:36.378Z,10.40
2019-03-26T12:30:51.685Z,10.50
2019-03-26T12:33:52.445Z,10.60
2019-03-26T12:36:52.781Z,10.60
2019-03-26T12:40:10.637Z,10.50
2019-03-26T12:43:16.580Z,10.30
2019-03-26T12:46:25.523Z,10.20
2019-03-26T12:49:33.034Z,10.50
2019-03-26T12:53:08.068Z,10.40
2019-03-26T12:56:59.641Z,10.50
2019-03-26T13:07:18.782Z,10.50
2019-03-26T13:10:26.966Z,10.50
2019-03-26T13:13:54.853Z,10.50
2019-03-26T13:20:56.007Z,10.60
2019-03-26T13:26:57.470Z,10.90
2019-03-26T13:30:44.884Z,10.90
2019-03-26T13:34:18.389Z,10.80
2019-03-26T13:37:46.790Z,10.60
2019-03-26T13:44:53.559Z,10.30
2019-03-26T13:48:08.081Z,10.10
2019-03-26T13:55:59.203Z,10.10
2019-03-26T13:59:17.848Z,10.10
2019-03-26T14:02:38.772Z,10.10
2019-03-26T14:09:15.236Z,10.00
2019-03-26T14:12:45.563Z,9.90
2019-03-26T14:19:58.693Z,9.70
2019-03-26T14:23:21.343Z,9.80
2019-03-26T14:37:51.570Z,10.60
2019-03-26T14:49:16.959Z,10.50
2019-03-26T14:52:24.151Z,10.60
2019-03-26T14:56:18.111Z,10.50
2019-03-26T14:59:40.886Z,10.50
2019-03-26T15:07:06.130Z,10.20
2019-03-26T15:14:41.798Z,10.20
2019-03-26T15:18:09.847Z,10.30
2019-03-26T15:24:42.425Z,10.50
2019-03-26T15:32:02.187Z,10.20
2019-03-26T15:35:18.898Z,10.60
2019-03-26T15:38:55.807Z,10.50
2019-03-26T15:41:54.595Z,10.50
2019-03-26T15:45:22.900Z,10.40
2019-03-26T15:57:12.468Z,10.50
2019-03-26T16:00:11.888Z,10.10
2019-03-26T16:11:38.246Z,10.10
2019-03-26T16:15:15.981Z,10.10
2019-03-26T16:18:44.168Z,10.00
2019-03-26T16:33:37.971Z,10.10
2019-03-26T16:48:38.056Z,10.00
2019-03-26T16:52:26.456Z,10.00
2019-03-26T18:58:14.242Z,9.70
2019-03-26T19:16:17.375Z,9.70
2019-03-26T19:20:03.769Z,9.80
2019-03-26T19:26:55.161Z,9.90
2019-03-26T19:30:17.373Z,9.80
2019-03-26T19:37:03.038Z,9.70
2019-03-26T19:40:17.268Z,9.70
2019-03-26T19:43:16.233Z,9.60
2019-03-26T19:53:47.393Z,9.50
2019-03-26T19:57:45.214Z,9.50
2019-03-26T20:01:03.820Z,9.50
2019-03-26T20:05:07.755Z,9.40
2019-03-26T20:08:48.971Z,9.40
2019-03-26T20:11:46.412Z,9.40
2019-03-26T20:15:05.656Z,9.40
2019-03-26T20:18:22.964Z,9.40
2019-03-26T20:24:58.362Z,9.30
2019-03-26T20:27:56.384Z,9.30
2019-03-26T20:33:34.229Z,9.20
2019-03-26T20:37:21.947Z,9.30
2019-03-26T20:40:38.258Z,9.20
2019-03-26T20:47:22.234Z,9.20
2019-03-26T20:50:34.987Z,9.20
2019-03-26T20:54:23.613Z,9.10
2019-03-26T20:57:25.653Z,9.20
2019-03-26T21:00:18.678Z,9.20
2019-03-26T21:03:38.297Z,9.10
2019-03-26T21:10:02.044Z,9.10
2019-03-26T21:10:05.260Z,9.10
2019-03-26T21:13:23.729Z,9.20
2019-03-26T21:16:49.794Z,9.10
2019-03-26T21:19:59.099Z,9.10
2019-03-26T21:22:53.769Z,9.10
2019-03-26T21:28:56.660Z,9.10
2019-03-26T21:31:51.887Z,9.00
2019-03-26T21:35:00.644Z,9.10
2019-03-26T21:37:55.773Z,9.10
2019-03-26T21:40:39.116Z,8.70
2019-03-26T21:43:38.473Z,9.10
2019-03-26T21:46:37.466Z,9.10
2019-03-26T21:49:30.383Z,9.10
2019-03-26T21:52:21.224Z,9.10
2019-03-26T21:55:19.463Z,9.00
2019-03-26T21:58:18.504Z,9.00
2019-03-26T22:01:11.664Z,9.00
2019-03-26T22:03:58.313Z,9.00
2019-03-26T22:07:07.083Z,9.00
2019-03-26T22:09:55.664Z,9.00
2019-03-26T22:13:04.089Z,9.00
2019-03-26T22:16:07.322Z,8.70
2019-03-26T22:19:01.086Z,8.90
2019-03-26T22:22:12.228Z,8.90
2019-03-26T22:24:51.307Z,8.90
2019-03-26T22:27:33.364Z,8.90
2019-03-26T22:30:40.943Z,8.90
2019-03-26T22:33:34.162Z,8.80
2019-03-26T22:36:16.676Z,8.90
2019-03-26T22:39:20.303Z,8.80
2019-03-26T22:42:41.453Z,8.80
2019-03-26T22:45:25.527Z,8.80
2019-03-26T22:48:03.093Z,8.70
2019-03-26T22:51:18.054Z,8.80
2019-03-26T22:54:02.240Z,8.80
2019-03-26T22:56:57.797Z,8.80
2019-03-26T22:59:42.273Z,8.70
2019-03-26T23:02:22.135Z,8.70
2019-03-26T23:05:06.206Z,8.70
2019-03-26T23:07:43.229Z,8.80
2019-03-26T23:10:25.697Z,8.70
2019-03-26T23:13:28.123Z,8.60
2019-03-26T23:16:36.305Z,8.60
2019-03-26T23:19:21.020Z,8.60
2019-03-26T23:22:42.705Z,8.60
2019-03-26T23:25:46.384Z,8.50
2019-03-26T23:28:30.380Z,8.60
2019-03-26T23:31:18.823Z,8.60
2019-03-26T23:34:03.401Z,8.60
2019-03-26T23:36:50.416Z,8.60
2019-03-26T23:39:40.919Z,8.50
2019-03-26T23:42:29.676Z,8.50
2019-03-26T23:45:15.010Z,8.50
2019-03-26T23:48:03.559Z,8.50
2019-03-26T23:50:43.510Z,8.60
2019-03-26T23:53:30.878Z,8.60
2019-03-26T23:56:02.761Z,8.60
2019-03-26T23:58:38.768Z,8.60
